Illinois River (Oklahoma), Tahlequah (07196500)

StateOklahomaLatestGood (1270 cfs)
RiverIllinois RiverRatingObservedEstimated
Updated2020-02-25 15:30 (35 minutes ago)Flood - The river is flooding. Obstacles can be treacherous or deadly. The river should be avoided at this stage for casual trips and definitely for the inexperienced. Trips should be attempted only with protective gear and equipment.Flood(none)3296
Discharge1270 cfs (median: 637 cfs)High - The river is high and potentially dangerous, especially for the young and / or inexperienced. Normal stream obstacles are sometimes difficult to navigate. Extended distances can be attempted, but canoe travel may not be advisable.High(none)1679
Height6.76 feetGood - Conditions are ideal for a canoe or kayak. Boats typically will drag on fewer than one-quarter of riffles, if at all, and portages are unnecessary or rare. Normal float lengths can be attempted without a problem.Good300901
TrendSteady (rising over 24 hours)Low - River is low but can still be floated. Some riffles are okay but most come with significant dragging and might need a portage. Float lengths should be reduced to accommodate low flow, dragging, and portages.Low(none)587
USGSExternal icon USGS Site (External icon Google Maps)Poor - River is too low to float comfortably. Most or all riffles will drag or must be portaged and some obstacles (such as slick shelf rock) cause undue problems. Avoid the river at this stage for casual paddling trips.Poor(none)229

Trending Data

Plot Image

Trips for Illinois River (Oklahoma), Tahlequah (07196500)

DateStartEndDistanceConditionDischargeHeightFishingDetails

A total of 0 rows are displayed.

Condition Descriptions

Fishing Conditions

Fish Species

Notes

Classic Trip List

The classic River Trips application is still available for use. It is updated with the new system using a data retrofit. It is no longer maintained. The original River Trips application is no longer updated (as of 1 Dec 2016) but can be checked for errors or for the condition of the data before it was converted to the new system.

Gauge Data Table

ObservationHeightDischargeMaximum
Discharge
Minimum
Discharge
Mean
Discharge
P05P10P20P25P50
(Median)
P75P80P90P95
2020-02-25 15:30 6.76 1270 31300 (2018) 95 (1964) 1750 135 222 317 363 637 1370 1580 2640 4960
2020-02-25 14:30 6.76 1270 31300 (2018) 95 (1964) 1750 135 222 317 363 637 1370 1580 2640 4960
2020-02-25 13:30 6.76 1270 31300 (2018) 95 (1964) 1750 135 222 317 363 637 1370 1580 2640 4960
2020-02-25 12:30 6.76 1270 31300 (2018) 95 (1964) 1750 135 222 317 363 637 1370 1580 2640 4960
2020-02-25 11:30 6.76 1270 31300 (2018) 95 (1964) 1750 135 222 317 363 637 1370 1580 2640 4960
2020-02-25 10:30 6.76 1270 31300 (2018) 95 (1964) 1750 135 222 317 363 637 1370 1580 2640 4960
2020-02-25 09:30 6.75 1250 31300 (2018) 95 (1964) 1750 135 222 317 363 637 1370 1580 2640 4960
2020-02-25 08:30 6.75 1250 31300 (2018) 95 (1964) 1750 135 222 317 363 637 1370 1580 2640 4960
2020-02-25 07:30 6.76 1270 31300 (2018) 95 (1964) 1750 135 222 317 363 637 1370 1580 2640 4960
2020-02-25 06:30 6.76 1270 31300 (2018) 95 (1964) 1750 135 222 317 363 637 1370 1580 2640 4960
2020-02-25 05:30 6.75 1250 31300 (2018) 95 (1964) 1750 135 222 317 363 637 1370 1580 2640 4960
2020-02-25 04:30 6.76 1270 31300 (2018) 95 (1964) 1750 135 222 317 363 637 1370 1580 2640 4960
2020-02-25 03:30 6.75 1250 31300 (2018) 95 (1964) 1750 135 222 317 363 637 1370 1580 2640 4960
2020-02-25 02:30 6.75 1250 31300 (2018) 95 (1964) 1750 135 222 317 363 637 1370 1580 2640 4960
2020-02-25 01:30 6.75 1250 31300 (2018) 95 (1964) 1750 135 222 317 363 637 1370 1580 2640 4960
2020-02-25 00:30 6.75 1250 31300 (2018) 95 (1964) 1750 135 222 317 363 637 1370 1580 2640 4960
2020-02-24 23:30 6.74 1240 15400 (1985) 95 (1964) 1500 136 231 330 380 662 1400 1740 3350 7340
2020-02-24 22:30 6.74 1240 15400 (1985) 95 (1964) 1500 136 231 330 380 662 1400 1740 3350 7340
2020-02-24 21:30 6.74 1240 15400 (1985) 95 (1964) 1500 136 231 330 380 662 1400 1740 3350 7340
2020-02-24 20:30 6.74 1240 15400 (1985) 95 (1964) 1500 136 231 330 380 662 1400 1740 3350 7340
2020-02-24 19:30 6.74 1240 15400 (1985) 95 (1964) 1500 136 231 330 380 662 1400 1740 3350 7340
2020-02-24 18:30 6.74 1240 15400 (1985) 95 (1964) 1500 136 231 330 380 662 1400 1740 3350 7340
2020-02-24 17:30 6.74 1240 15400 (1985) 95 (1964) 1500 136 231 330 380 662 1400 1740 3350 7340
2020-02-24 16:30 6.74 1240 15400 (1985) 95 (1964) 1500 136 231 330 380 662 1400 1740 3350 7340
2020-02-24 15:30 6.75 1250 15400 (1985) 95 (1964) 1500 136 231 330 380 662 1400 1740 3350 7340
2020-02-24 14:30 6.75 1250 15400 (1985) 95 (1964) 1500 136 231 330 380 662 1400 1740 3350 7340
2020-02-24 13:30 6.76 1270 15400 (1985) 95 (1964) 1500 136 231 330 380 662 1400 1740 3350 7340
2020-02-24 12:30 6.76 1270 15400 (1985) 95 (1964) 1500 136 231 330 380 662 1400 1740 3350 7340
2020-02-24 11:30 6.76 1270 15400 (1985) 95 (1964) 1500 136 231 330 380 662 1400 1740 3350 7340
2020-02-24 10:30 6.75 1250 15400 (1985) 95 (1964) 1500 136 231 330 380 662 1400 1740 3350 7340
2020-02-24 09:30 6.76 1270 15400 (1985) 95 (1964) 1500 136 231 330 380 662 1400 1740 3350 7340
2020-02-24 08:30 6.76 1270 15400 (1985) 95 (1964) 1500 136 231 330 380 662 1400 1740 3350 7340
2020-02-24 07:30 6.76 1270 15400 (1985) 95 (1964) 1500 136 231 330 380 662 1400 1740 3350 7340
2020-02-24 06:30 6.75 1250 15400 (1985) 95 (1964) 1500 136 231 330 380 662 1400 1740 3350 7340
2020-02-24 05:30 6.76 1270 15400 (1985) 95 (1964) 1500 136 231 330 380 662 1400 1740 3350 7340
2020-02-24 04:30 6.76 1270 15400 (1985) 95 (1964) 1500 136 231 330 380 662 1400 1740 3350 7340
2020-02-24 03:30 6.76 1270 15400 (1985) 95 (1964) 1500 136 231 330 380 662 1400 1740 3350 7340
2020-02-24 02:30 6.77 1280 15400 (1985) 95 (1964) 1500 136 231 330 380 662 1400 1740 3350 7340
2020-02-24 01:30 6.76 1270 15400 (1985) 95 (1964) 1500 136 231 330 380 662 1400 1740 3350 7340
2020-02-24 00:30 6.75 1250 15400 (1985) 95 (1964) 1500 136 231 330 380 662 1400 1740 3350 7340
2020-02-23 23:30 6.74 1240 7760 (1945) 100 (1964) 1270 139 218 335 377 644 1500 1830 3540 5210
2020-02-23 22:30 6.74 1240 7760 (1945) 100 (1964) 1270 139 218 335 377 644 1500 1830 3540 5210
2020-02-23 21:30 6.76 1270 7760 (1945) 100 (1964) 1270 139 218 335 377 644 1500 1830 3540 5210
2020-02-23 20:30 6.76 1270 7760 (1945) 100 (1964) 1270 139 218 335 377 644 1500 1830 3540 5210
2020-02-23 19:30 6.76 1270 7760 (1945) 100 (1964) 1270 139 218 335 377 644 1500 1830 3540 5210
2020-02-23 18:30 6.76 1270 7760 (1945) 100 (1964) 1270 139 218 335 377 644 1500 1830 3540 5210
2020-02-23 17:30 6.76 1270 7760 (1945) 100 (1964) 1270 139 218 335 377 644 1500 1830 3540 5210
2020-02-23 16:30 6.77 1280 7760 (1945) 100 (1964) 1270 139 218 335 377 644 1500 1830 3540 5210
2020-02-23 15:30 6.77 1280 7760 (1945) 100 (1964) 1270 139 218 335 377 644 1500 1830 3540 5210
2020-02-23 14:30 6.76 1270 7760 (1945) 100 (1964) 1270 139 218 335 377 644 1500 1830 3540 5210
2020-02-23 13:30 6.77 1280 7760 (1945) 100 (1964) 1270 139 218 335 377 644 1500 1830 3540 5210
2020-02-23 12:30 6.78 1290 7760 (1945) 100 (1964) 1270 139 218 335 377 644 1500 1830 3540 5210
2020-02-23 11:30 6.75 1250 7760 (1945) 100 (1964) 1270 139 218 335 377 644 1500 1830 3540 5210
2020-02-23 10:30 6.76 1270 7760 (1945) 100 (1964) 1270 139 218 335 377 644 1500 1830 3540 5210
2020-02-23 09:30 6.79 1310 7760 (1945) 100 (1964) 1270 139 218 335 377 644 1500 1830 3540 5210
2020-02-23 08:30 6.79 1310 7760 (1945) 100 (1964) 1270 139 218 335 377 644 1500 1830 3540 5210
2020-02-23 07:30 6.79 1310 7760 (1945) 100 (1964) 1270 139 218 335 377 644 1500 1830 3540 5210
2020-02-23 06:30 6.81 1330 7760 (1945) 100 (1964) 1270 139 218 335 377 644 1500 1830 3540 5210
2020-02-23 05:30 6.80 1320 7760 (1945) 100 (1964) 1270 139 218 335 377 644 1500 1830 3540 5210
2020-02-23 04:30 6.80 1320 7760 (1945) 100 (1964) 1270 139 218 335 377 644 1500 1830 3540 5210
2020-02-23 03:30 6.80 1320 7760 (1945) 100 (1964) 1270 139 218 335 377 644 1500 1830 3540 5210
2020-02-23 02:30 6.81 1330 7760 (1945) 100 (1964) 1270 139 218 335 377 644 1500 1830 3540 5210
2020-02-23 01:30 6.81 1330 7760 (1945) 100 (1964) 1270 139 218 335 377 644 1500 1830 3540 5210
2020-02-23 00:30 6.81 1330 7760 (1945) 100 (1964) 1270 139 218 335 377 644 1500 1830 3540 5210
2020-02-22 23:30 6.81 1330 18500 (1997) 100 (1964) 1490 137 210 348 395 671 1300 1490 2570 6900
2020-02-22 22:30 6.81 1330 18500 (1997) 100 (1964) 1490 137 210 348 395 671 1300 1490 2570 6900
2020-02-22 21:30 6.81 1330 18500 (1997) 100 (1964) 1490 137 210 348 395 671 1300 1490 2570 6900
2020-02-22 20:30 6.82 1350 18500 (1997) 100 (1964) 1490 137 210 348 395 671 1300 1490 2570 6900
2020-02-22 19:30 6.82 1350 18500 (1997) 100 (1964) 1490 137 210 348 395 671 1300 1490 2570 6900
2020-02-22 18:30 6.82 1350 18500 (1997) 100 (1964) 1490 137 210 348 395 671 1300 1490 2570 6900
2020-02-22 17:30 6.82 1350 18500 (1997) 100 (1964) 1490 137 210 348 395 671 1300 1490 2570 6900
2020-02-22 16:30 6.83 1360 18500 (1997) 100 (1964) 1490 137 210 348 395 671 1300 1490 2570 6900
2020-02-22 15:30 6.83 1360 18500 (1997) 100 (1964) 1490 137 210 348 395 671 1300 1490 2570 6900
2020-02-22 14:30 6.83 1360 18500 (1997) 100 (1964) 1490 137 210 348 395 671 1300 1490 2570 6900
2020-02-22 13:30 6.84 1370 18500 (1997) 100 (1964) 1490 137 210 348 395 671 1300 1490 2570 6900
2020-02-22 12:30 6.85 1390 18500 (1997) 100 (1964) 1490 137 210 348 395 671 1300 1490 2570 6900
2020-02-22 11:30 6.84 1370 18500 (1997) 100 (1964) 1490 137 210 348 395 671 1300 1490 2570 6900
2020-02-22 10:30 6.85 1390 18500 (1997) 100 (1964) 1490 137 210 348 395 671 1300 1490 2570 6900
2020-02-22 09:30 6.87 1410 18500 (1997) 100 (1964) 1490 137 210 348 395 671 1300 1490 2570 6900
2020-02-22 08:30 6.88 1430 18500 (1997) 100 (1964) 1490 137 210 348 395 671 1300 1490 2570 6900
2020-02-22 07:30 6.88 1430 18500 (1997) 100 (1964) 1490 137 210 348 395 671 1300 1490 2570 6900
2020-02-22 06:30 6.89 1440 18500 (1997) 100 (1964) 1490 137 210 348 395 671 1300 1490 2570 6900
2020-02-22 05:30 6.89 1440 18500 (1997) 100 (1964) 1490 137 210 348 395 671 1300 1490 2570 6900
2020-02-22 04:30 6.89 1440 18500 (1997) 100 (1964) 1490 137 210 348 395 671 1300 1490 2570 6900
2020-02-22 03:30 6.90 1450 18500 (1997) 100 (1964) 1490 137 210 348 395 671 1300 1490 2570 6900
2020-02-22 02:30 6.90 1450 18500 (1997) 100 (1964) 1490 137 210 348 395 671 1300 1490 2570 6900
2020-02-22 01:30 6.90 1450 18500 (1997) 100 (1964) 1490 137 210 348 395 671 1300 1490 2570 6900
2020-02-22 00:30 6.91 1470 18500 (1997) 100 (1964) 1490 137 210 348 395 671 1300 1490 2570 6900
2020-02-21 23:30 6.90 1450 31400 (1951) 100 (1964) 1520 138 210 359 388 692 1240 1470 2980 4840
2020-02-21 22:30 6.91 1470 31400 (1951) 100 (1964) 1520 138 210 359 388 692 1240 1470 2980 4840
2020-02-21 21:30 6.91 1470 31400 (1951) 100 (1964) 1520 138 210 359 388 692 1240 1470 2980 4840
2020-02-21 20:30 6.90 1450 31400 (1951) 100 (1964) 1520 138 210 359 388 692 1240 1470 2980 4840
2020-02-21 19:30 6.91 1470 31400 (1951) 100 (1964) 1520 138 210 359 388 692 1240 1470 2980 4840
2020-02-21 18:30 6.91 1470 31400 (1951) 100 (1964) 1520 138 210 359 388 692 1240 1470 2980 4840
2020-02-21 17:30 6.92 1480 31400 (1951) 100 (1964) 1520 138 210 359 388 692 1240 1470 2980 4840
2020-02-21 16:30 6.92 1480 31400 (1951) 100 (1964) 1520 138 210 359 388 692 1240 1470 2980 4840
2020-02-21 15:30 6.92 1480 31400 (1951) 100 (1964) 1520 138 210 359 388 692 1240 1470 2980 4840
2020-02-21 14:30 6.92 1480 31400 (1951) 100 (1964) 1520 138 210 359 388 692 1240 1470 2980 4840
2020-02-21 13:30 6.93 1500 31400 (1951) 100 (1964) 1520 138 210 359 388 692 1240 1470 2980 4840
2020-02-21 12:30 6.94 1510 31400 (1951) 100 (1964) 1520 138 210 359 388 692 1240 1470 2980 4840
2020-02-21 11:30 6.94 1510 31400 (1951) 100 (1964) 1520 138 210 359 388 692 1240 1470 2980 4840
2020-02-21 10:30 6.96 1540 31400 (1951) 100 (1964) 1520 138 210 359 388 692 1240 1470 2980 4840
2020-02-21 09:30 6.96 1540 31400 (1951) 100 (1964) 1520 138 210 359 388 692 1240 1470 2980 4840
2020-02-21 08:30 6.97 1550 31400 (1951) 100 (1964) 1520 138 210 359 388 692 1240 1470 2980 4840
2020-02-21 07:30 6.98 1560 31400 (1951) 100 (1964) 1520 138 210 359 388 692 1240 1470 2980 4840
2020-02-21 06:30 6.98 1560 31400 (1951) 100 (1964) 1520 138 210 359 388 692 1240 1470 2980 4840
2020-02-21 05:30 6.99 1580 31400 (1951) 100 (1964) 1520 138 210 359 388 692 1240 1470 2980 4840
2020-02-21 04:30 7.00 1590 31400 (1951) 100 (1964) 1520 138 210 359 388 692 1240 1470 2980 4840
2020-02-21 03:30 7.00 1590 31400 (1951) 100 (1964) 1520 138 210 359 388 692 1240 1470 2980 4840
2020-02-21 02:30 6.99 1580 31400 (1951) 100 (1964) 1520 138 210 359 388 692 1240 1470 2980 4840
2020-02-21 01:30 7.00 1590 31400 (1951) 100 (1964) 1520 138 210 359 388 692 1240 1470 2980 4840
2020-02-21 00:30 7.00 1590 31400 (1951) 100 (1964) 1520 138 210 359 388 692 1240 1470 2980 4840
2020-02-20 23:30 7.01 1600 19700 (1951) 100 (1954) 1220 139 215 343 384 642 1120 1160 2220 4480
2020-02-20 22:30 7.01 1600 19700 (1951) 100 (1954) 1220 139 215 343 384 642 1120 1160 2220 4480
2020-02-20 21:30 7.01 1600 19700 (1951) 100 (1954) 1220 139 215 343 384 642 1120 1160 2220 4480
2020-02-20 20:30 7.01 1600 19700 (1951) 100 (1954) 1220 139 215 343 384 642 1120 1160 2220 4480
2020-02-20 19:30 7.02 1620 19700 (1951) 100 (1954) 1220 139 215 343 384 642 1120 1160 2220 4480
2020-02-20 18:30 7.02 1620 19700 (1951) 100 (1954) 1220 139 215 343 384 642 1120 1160 2220 4480
2020-02-20 17:30 7.02 1620 19700 (1951) 100 (1954) 1220 139 215 343 384 642 1120 1160 2220 4480
2020-02-20 16:30 7.03 1630 19700 (1951) 100 (1954) 1220 139 215 343 384 642 1120 1160 2220 4480
2020-02-20 15:30 7.03 1630 19700 (1951) 100 (1954) 1220 139 215 343 384 642 1120 1160 2220 4480
2020-02-20 14:30 7.04 1650 19700 (1951) 100 (1954) 1220 139 215 343 384 642 1120 1160 2220 4480
2020-02-20 13:30 7.05 1660 19700 (1951) 100 (1954) 1220 139 215 343 384 642 1120 1160 2220 4480
2020-02-20 12:30 7.06 1670 19700 (1951) 100 (1954) 1220 139 215 343 384 642 1120 1160 2220 4480
2020-02-20 11:30 7.07 1690 19700 (1951) 100 (1954) 1220 139 215 343 384 642 1120 1160 2220 4480
2020-02-20 10:30 7.07 1690 19700 (1951) 100 (1954) 1220 139 215 343 384 642 1120 1160 2220 4480
2020-02-20 09:30 7.08 1700 19700 (1951) 100 (1954) 1220 139 215 343 384 642 1120 1160 2220 4480
2020-02-20 08:30 7.08 1700 19700 (1951) 100 (1954) 1220 139 215 343 384 642 1120 1160 2220 4480
2020-02-20 07:30 7.09 1710 19700 (1951) 100 (1954) 1220 139 215 343 384 642 1120 1160 2220 4480
2020-02-20 06:30 7.10 1730 19700 (1951) 100 (1954) 1220 139 215 343 384 642 1120 1160 2220 4480
2020-02-20 05:30 7.09 1710 19700 (1951) 100 (1954) 1220 139 215 343 384 642 1120 1160 2220 4480
2020-02-20 04:30 7.10 1730 19700 (1951) 100 (1954) 1220 139 215 343 384 642 1120 1160 2220 4480
2020-02-20 03:30 7.10 1730 19700 (1951) 100 (1954) 1220 139 215 343 384 642 1120 1160 2220 4480
2020-02-20 02:30 7.11 1740 19700 (1951) 100 (1954) 1220 139 215 343 384 642 1120 1160 2220 4480
2020-02-20 01:30 7.11 1740 19700 (1951) 100 (1954) 1220 139 215 343 384 642 1120 1160 2220 4480
2020-02-20 00:30 7.12 1760 19700 (1951) 100 (1954) 1220 139 215 343 384 642 1120 1160 2220 4480
2020-02-19 23:30 7.12 1760 24800 (1938) 100 (1954) 1390 146 227 344 392 660 1120 1240 2230 3940
2020-02-19 22:30 7.13 1770 24800 (1938) 100 (1954) 1390 146 227 344 392 660 1120 1240 2230 3940
2020-02-19 21:30 7.14 1780 24800 (1938) 100 (1954) 1390 146 227 344 392 660 1120 1240 2230 3940
2020-02-19 20:30 7.14 1780 24800 (1938) 100 (1954) 1390 146 227 344 392 660 1120 1240 2230 3940
2020-02-19 19:30 7.14 1780 24800 (1938) 100 (1954) 1390 146 227 344 392 660 1120 1240 2230 3940
2020-02-19 18:30 7.15 1800 24800 (1938) 100 (1954) 1390 146 227 344 392 660 1120 1240 2230 3940
2020-02-19 17:30 7.15 1800 24800 (1938) 100 (1954) 1390 146 227 344 392 660 1120 1240 2230 3940
2020-02-19 16:30 7.15 1800 24800 (1938) 100 (1954) 1390 146 227 344 392 660 1120 1240 2230 3940
2020-02-19 15:30 7.15 1800 24800 (1938) 100 (1954) 1390 146 227 344 392 660 1120 1240 2230 3940
2020-02-19 14:30 7.16 1810 24800 (1938) 100 (1954) 1390 146 227 344 392 660 1120 1240 2230 3940
2020-02-19 13:30 7.17 1820 24800 (1938) 100 (1954) 1390 146 227 344 392 660 1120 1240 2230 3940
2020-02-19 12:30 7.18 1840 24800 (1938) 100 (1954) 1390 146 227 344 392 660 1120 1240 2230 3940
2020-02-19 11:30 7.19 1850 24800 (1938) 100 (1954) 1390 146 227 344 392 660 1120 1240 2230 3940
2020-02-19 10:30 7.19 1850 24800 (1938) 100 (1954) 1390 146 227 344 392 660 1120 1240 2230 3940
2020-02-19 09:30 7.20 1870 24800 (1938) 100 (1954) 1390 146 227 344 392 660 1120 1240 2230 3940
2020-02-19 08:30 7.21 1880 24800 (1938) 100 (1954) 1390 146 227 344 392 660 1120 1240 2230 3940
2020-02-19 07:30 7.20 1870 24800 (1938) 100 (1954) 1390 146 227 344 392 660 1120 1240 2230 3940
2020-02-19 06:30 7.22 1890 24800 (1938) 100 (1954) 1390 146 227 344 392 660 1120 1240 2230 3940
2020-02-19 05:30 7.23 1910 24800 (1938) 100 (1954) 1390 146 227 344 392 660 1120 1240 2230 3940
2020-02-19 04:30 7.23 1910 24800 (1938) 100 (1954) 1390 146 227 344 392 660 1120 1240 2230 3940
2020-02-19 03:30 7.23 1910 24800 (1938) 100 (1954) 1390 146 227 344 392 660 1120 1240 2230 3940
2020-02-19 02:30 7.24 1920 24800 (1938) 100 (1954) 1390 146 227 344 392 660 1120 1240 2230 3940
2020-02-19 01:30 7.24 1920 24800 (1938) 100 (1954) 1390 146 227 344 392 660 1120 1240 2230 3940
2020-02-19 00:30 7.24 1920 24800 (1938) 100 (1954) 1390 146 227 344 392 660 1120 1240 2230 3940
2020-02-18 23:30 7.25 1940 34700 (1938) 100 (1954) 1510 142 213 332 365 642 1160 1400 2620 4610
2020-02-18 22:30 7.27 1960 34700 (1938) 100 (1954) 1510 142 213 332 365 642 1160 1400 2620 4610
2020-02-18 21:30 7.26 1950 34700 (1938) 100 (1954) 1510 142 213 332 365 642 1160 1400 2620 4610
2020-02-18 20:30 7.27 1960 34700 (1938) 100 (1954) 1510 142 213 332 365 642 1160 1400 2620 4610
2020-02-18 19:30 7.28 1980 34700 (1938) 100 (1954) 1510 142 213 332 365 642 1160 1400 2620 4610
2020-02-18 18:30 7.28 1980 34700 (1938) 100 (1954) 1510 142 213 332 365 642 1160 1400 2620 4610
2020-02-18 17:30 7.28 1980 34700 (1938) 100 (1954) 1510 142 213 332 365 642 1160 1400 2620 4610
2020-02-18 16:30 7.29 1990 34700 (1938) 100 (1954) 1510 142 213 332 365 642 1160 1400 2620 4610
2020-02-18 15:30 7.28 1980 34700 (1938) 100 (1954) 1510 142 213 332 365 642 1160 1400 2620 4610
2020-02-18 14:30 7.29 1990 34700 (1938) 100 (1954) 1510 142 213 332 365 642 1160 1400 2620 4610
2020-02-18 13:30 7.30 2010 34700 (1938) 100 (1954) 1510 142 213 332 365 642 1160 1400 2620 4610
2020-02-18 12:30 7.31 2020 34700 (1938) 100 (1954) 1510 142 213 332 365 642 1160 1400 2620 4610
2020-02-18 11:30 7.32 2040 34700 (1938) 100 (1954) 1510 142 213 332 365 642 1160 1400 2620 4610
2020-02-18 10:30 7.32 2040 34700 (1938) 100 (1954) 1510 142 213 332 365 642 1160 1400 2620 4610
2020-02-18 09:30 7.33 2050 34700 (1938) 100 (1954) 1510 142 213 332 365 642 1160 1400 2620 4610
2020-02-18 08:30 7.34 2070 34700 (1938) 100 (1954) 1510 142 213 332 365 642 1160 1400 2620 4610
2020-02-18 07:30 7.34 2070 34700 (1938) 100 (1954) 1510 142 213 332 365 642 1160 1400 2620 4610
2020-02-18 06:30 7.35 2080 34700 (1938) 100 (1954) 1510 142 213 332 365 642 1160 1400 2620 4610
2020-02-18 05:30 7.38 2120 34700 (1938) 100 (1954) 1510 142 213 332 365 642 1160 1400 2620 4610
2020-02-18 04:30 7.37 2110 34700 (1938) 100 (1954) 1510 142 213 332 365 642 1160 1400 2620 4610
2020-02-18 03:30 7.37 2110 34700 (1938) 100 (1954) 1510 142 213 332 365 642 1160 1400 2620 4610
2020-02-18 02:30 7.37 2110 34700 (1938) 100 (1954) 1510 142 213 332 365 642 1160 1400 2620 4610
2020-02-18 01:30 7.38 2120 34700 (1938) 100 (1954) 1510 142 213 332 365 642 1160 1400 2620 4610
2020-02-18 00:30 7.39 2140 34700 (1938) 100 (1954) 1510 142 213 332 365 642 1160 1400 2620 4610

A total of 184 rows are displayed for years 1936 through 2019.